sensor_id;sensor_type;location;lat;lon;timestamp;pressure;altitude;pressure_sealevel;temperature
29423;BMP180;16399;51.686;8.684;2023-02-03T00:00:18;100523.00;;;7.70
29423;BMP180;16399;51.686;8.684;2023-02-03T00:03:20;100518.00;;;7.70
29423;BMP180;16399;51.686;8.684;2023-02-03T00:06:23;100514.00;;;7.70
29423;BMP180;16399;51.686;8.684;2023-02-03T00:09:25;100515.00;;;7.70
29423;BMP180;16399;51.686;8.684;2023-02-03T00:12:28;100511.00;;;7.70
29423;BMP180;16399;51.686;8.684;2023-02-03T00:15:31;100495.00;;;7.70
29423;BMP180;16399;51.686;8.684;2023-02-03T00:18:33;100501.00;;;7.70
29423;BMP180;16399;51.686;8.684;2023-02-03T00:21:35;100497.00;;;7.70
29423;BMP180;16399;51.686;8.684;2023-02-03T00:24:38;100488.00;;;7.70
29423;BMP180;16399;51.686;8.684;2023-02-03T00:27:40;100477.00;;;7.70
29423;BMP180;16399;51.686;8.684;2023-02-03T00:30:42;100476.00;;;7.70
29423;BMP180;16399;51.686;8.684;2023-02-03T00:33:45;100471.00;;;7.70
29423;BMP180;16399;51.686;8.684;2023-02-03T00:36:47;100477.00;;;7.70
29423;BMP180;16399;51.686;8.684;2023-02-03T00:39:50;100474.00;;;7.70
29423;BMP180;16399;51.686;8.684;2023-02-03T00:42:52;100476.00;;;7.70
29423;BMP180;16399;51.686;8.684;2023-02-03T00:45:55;100476.00;;;7.70
29423;BMP180;16399;51.686;8.684;2023-02-03T00:48:57;100477.00;;;7.70
29423;BMP180;16399;51.686;8.684;2023-02-03T00:51:59;100484.00;;;7.70
29423;BMP180;16399;51.686;8.684;2023-02-03T00:55:02;100474.00;;;7.70
29423;BMP180;16399;51.686;8.684;2023-02-03T00:58:05;100473.00;;;7.70
29423;BMP180;16399;51.686;8.684;2023-02-03T01:01:07;100484.00;;;7.80
29423;BMP180;16399;51.686;8.684;2023-02-03T01:04:10;100480.00;;;7.80
29423;BMP180;16399;51.686;8.684;2023-02-03T01:07:12;100486.00;;;7.80
29423;BMP180;16399;51.686;8.684;2023-02-03T01:10:14;100492.00;;;7.80
29423;BMP180;16399;51.686;8.684;2023-02-03T01:13:17;100488.00;;;7.80
29423;BMP180;16399;51.686;8.684;2023-02-03T01:16:21;100496.00;;;7.80
29423;BMP180;16399;51.686;8.684;2023-02-03T01:19:24;100507.00;;;7.80
29423;BMP180;16399;51.686;8.684;2023-02-03T01:22:29;100510.00;;;7.80
29423;BMP180;16399;51.686;8.684;2023-02-03T01:25:33;100516.00;;;7.80
29423;BMP180;16399;51.686;8.684;2023-02-03T01:28:35;100529.00;;;7.80
29423;BMP180;16399;51.686;8.684;2023-02-03T01:31:40;100504.00;;;7.80
29423;BMP180;16399;51.686;8.684;2023-02-03T01:34:42;100512.00;;;7.90
29423;BMP180;16399;51.686;8.684;2023-02-03T01:37:45;100504.00;;;7.90
29423;BMP180;16399;51.686;8.684;2023-02-03T01:40:47;100508.00;;;7.90
29423;BMP180;16399;51.686;8.684;2023-02-03T01:43:52;100509.00;;;7.90
29423;BMP180;16399;51.686;8.684;2023-02-03T01:46:54;100501.00;;;7.90
29423;BMP180;16399;51.686;8.684;2023-02-03T01:50:03;100498.00;;;7.90
29423;BMP180;16399;51.686;8.684;2023-02-03T01:53:08;100502.00;;;7.90
29423;BMP180;16399;51.686;8.684;2023-02-03T01:56:11;100505.00;;;7.90
29423;BMP180;16399;51.686;8.684;2023-02-03T01:59:16;100504.00;;;7.90
29423;BMP180;16399;51.686;8.684;2023-02-03T02:02:19;100485.00;;;7.90
29423;BMP180;16399;51.686;8.684;2023-02-03T02:05:24;100495.00;;;7.90
29423;BMP180;16399;51.686;8.684;2023-02-03T02:08:28;100487.00;;;7.90
29423;BMP180;16399;51.686;8.684;2023-02-03T02:11:31;100496.00;;;7.90
29423;BMP180;16399;51.686;8.684;2023-02-03T02:14:34;100486.00;;;7.90
29423;BMP180;16399;51.686;8.684;2023-02-03T02:24:28;100468.00;;;7.90
29423;BMP180;16399;51.686;8.684;2023-02-03T02:38:01;100403.00;;;7.90
29423;BMP180;16399;51.686;8.684;2023-02-03T02:44:25;100414.00;;;7.90
29423;BMP180;16399;51.686;8.684;2023-02-03T02:47:28;100423.00;;;7.90
29423;BMP180;16399;51.686;8.684;2023-02-03T02:50:33;100402.00;;;7.90
29423;BMP180;16399;51.686;8.684;2023-02-03T02:53:39;100397.00;;;7.90
29423;BMP180;16399;51.686;8.684;2023-02-03T02:56:43;100394.00;;;7.90
29423;BMP180;16399;51.686;8.684;2023-02-03T02:59:47;100399.00;;;8.00
29423;BMP180;16399;51.686;8.684;2023-02-03T03:02:49;100416.00;;;8.00
29423;BMP180;16399;51.686;8.684;2023-02-03T03:05:54;100425.00;;;8.00
29423;BMP180;16399;51.686;8.684;2023-02-03T03:09:03;100434.00;;;8.00
29423;BMP180;16399;51.686;8.684;2023-02-03T03:12:08;100460.00;;;8.00
29423;BMP180;16399;51.686;8.684;2023-02-03T03:15:13;100477.00;;;8.00
29423;BMP180;16399;51.686;8.684;2023-02-03T03:18:25;100464.00;;;8.00
29423;BMP180;16399;51.686;8.684;2023-02-03T03:21:37;100465.00;;;8.00
29423;BMP180;16399;51.686;8.684;2023-02-03T03:24:40;100475.00;;;8.00
29423;BMP180;16399;51.686;8.684;2023-02-03T03:27:49;100477.00;;;8.00
29423;BMP180;16399;51.686;8.684;2023-02-03T03:30:52;100473.00;;;8.00
29423;BMP180;16399;51.686;8.684;2023-02-03T03:33:55;100463.00;;;8.00
29423;BMP180;16399;51.686;8.684;2023-02-03T03:37:11;100445.00;;;8.00
29423;BMP180;16399;51.686;8.684;2023-02-03T03:40:26;100432.00;;;8.00
29423;BMP180;16399;51.686;8.684;2023-02-03T03:43:30;100434.00;;;8.00
29423;BMP180;16399;51.686;8.684;2023-02-03T03:46:49;100441.00;;;8.00
29423;BMP180;16399;51.686;8.684;2023-02-03T03:49:43;100425.00;;;8.00
29423;BMP180;16399;51.686;8.684;2023-02-03T03:52:48;100410.00;;;8.00
29423;BMP180;16399;51.686;8.684;2023-02-03T03:59:14;100417.00;;;8.00
29423;BMP180;16399;51.686;8.684;2023-02-03T04:02:17;100410.00;;;8.00
29423;BMP180;16399;51.686;8.684;2023-02-03T04:05:22;100421.00;;;8.00
29423;BMP180;16399;51.686;8.684;2023-02-03T04:08:25;100414.00;;;8.00
29423;BMP180;16399;51.686;8.684;2023-02-03T04:11:27;100415.00;;;8.00
29423;BMP180;16399;51.686;8.684;2023-02-03T04:14:48;100409.00;;;8.00
29423;BMP180;16399;51.686;8.684;2023-02-03T04:17:50;100418.00;;;8.00
29423;BMP180;16399;51.686;8.684;2023-02-03T04:20:52;100411.00;;;8.00
29423;BMP180;16399;51.686;8.684;2023-02-03T04:23:55;100398.00;;;8.00
29423;BMP180;16399;51.686;8.684;2023-02-03T04:26:57;100400.00;;;8.00
29423;BMP180;16399;51.686;8.684;2023-02-03T04:29:59;100387.00;;;8.10
29423;BMP180;16399;51.686;8.684;2023-02-03T04:33:02;100411.00;;;8.00
29423;BMP180;16399;51.686;8.684;2023-02-03T04:36:05;100390.00;;;8.10
29423;BMP180;16399;51.686;8.684;2023-02-03T04:39:08;100401.00;;;8.10
29423;BMP180;16399;51.686;8.684;2023-02-03T04:42:10;100412.00;;;8.10
29423;BMP180;16399;51.686;8.684;2023-02-03T04:45:12;100398.00;;;8.10
29423;BMP180;16399;51.686;8.684;2023-02-03T04:48:15;100406.00;;;8.10
29423;BMP180;16399;51.686;8.684;2023-02-03T04:51:17;100399.00;;;8.10
29423;BMP180;16399;51.686;8.684;2023-02-03T04:54:19;100401.00;;;8.10
29423;BMP180;16399;51.686;8.684;2023-02-03T04:57:22;100410.00;;;8.10
29423;BMP180;16399;51.686;8.684;2023-02-03T05:00:24;100386.00;;;8.10
29423;BMP180;16399;51.686;8.684;2023-02-03T05:03:27;100396.00;;;8.10
29423;BMP180;16399;51.686;8.684;2023-02-03T05:06:29;100409.00;;;8.10
29423;BMP180;16399;51.686;8.684;2023-02-03T05:09:33;100400.00;;;8.10
29423;BMP180;16399;51.686;8.684;2023-02-03T05:12:36;100390.00;;;8.10
29423;BMP180;16399;51.686;8.684;2023-02-03T05:15:38;100373.00;;;8.10
29423;BMP180;16399;51.686;8.684;2023-02-03T05:18:40;100364.00;;;8.10
29423;BMP180;16399;51.686;8.684;2023-02-03T05:21:43;100354.00;;;8.10
29423;BMP180;16399;51.686;8.684;2023-02-03T05:24:45;100355.00;;;8.10
29423;BMP180;16399;51.686;8.684;2023-02-03T05:27:47;100369.00;;;8.10
29423;BMP180;16399;51.686;8.684;2023-02-03T05:30:50;100369.00;;;8.10
29423;BMP180;16399;51.686;8.684;2023-02-03T05:33:52;100363.00;;;8.10
29423;BMP180;16399;51.686;8.684;2023-02-03T05:36:54;100364.00;;;8.10
29423;BMP180;16399;51.686;8.684;2023-02-03T05:39:56;100353.00;;;8.10
29423;BMP180;16399;51.686;8.684;2023-02-03T05:43:00;100357.00;;;8.10
29423;BMP180;16399;51.686;8.684;2023-02-03T05:46:04;100375.00;;;8.10
29423;BMP180;16399;51.686;8.684;2023-02-03T05:49:07;100377.00;;;8.10
29423;BMP180;16399;51.686;8.684;2023-02-03T05:52:09;100364.00;;;8.10
29423;BMP180;16399;51.686;8.684;2023-02-03T05:55:11;100371.00;;;8.10
29423;BMP180;16399;51.686;8.684;2023-02-03T05:58:14;100356.00;;;8.10
29423;BMP180;16399;51.686;8.684;2023-02-03T06:01:16;100350.00;;;8.10
29423;BMP180;16399;51.686;8.684;2023-02-03T06:04:19;100361.00;;;8.10
29423;BMP180;16399;51.686;8.684;2023-02-03T06:07:22;100344.00;;;8.10
29423;BMP180;16399;51.686;8.684;2023-02-03T06:10:24;100347.00;;;8.10
29423;BMP180;16399;51.686;8.684;2023-02-03T06:13:27;100361.00;;;8.10
29423;BMP180;16399;51.686;8.684;2023-02-03T06:16:29;100370.00;;;8.10
29423;BMP180;16399;51.686;8.684;2023-02-03T06:19:32;100363.00;;;8.10
29423;BMP180;16399;51.686;8.684;2023-02-03T06:22:34;100352.00;;;8.10
29423;BMP180;16399;51.686;8.684;2023-02-03T06:25:37;100356.00;;;8.10
29423;BMP180;16399;51.686;8.684;2023-02-03T06:28:39;100359.00;;;8.20
29423;BMP180;16399;51.686;8.684;2023-02-03T06:31:42;100361.00;;;8.10
29423;BMP180;16399;51.686;8.684;2023-02-03T06:34:44;100369.00;;;8.20
29423;BMP180;16399;51.686;8.684;2023-02-03T06:37:46;100366.00;;;8.20
29423;BMP180;16399;51.686;8.684;2023-02-03T06:40:49;100366.00;;;8.20
29423;BMP180;16399;51.686;8.684;2023-02-03T06:43:51;100369.00;;;8.10
29423;BMP180;16399;51.686;8.684;2023-02-03T06:46:53;100357.00;;;8.10
29423;BMP180;16399;51.686;8.684;2023-02-03T06:49:56;100370.00;;;8.00
29423;BMP180;16399;51.686;8.684;2023-02-03T06:52:58;100373.00;;;8.00
29423;BMP180;16399;51.686;8.684;2023-02-03T06:56:01;100374.00;;;7.90
29423;BMP180;16399;51.686;8.684;2023-02-03T06:59:03;100361.00;;;7.90
29423;BMP180;16399;51.686;8.684;2023-02-03T07:02:06;100367.00;;;7.80
29423;BMP180;16399;51.686;8.684;2023-02-03T07:05:08;100381.00;;;7.80
29423;BMP180;16399;51.686;8.684;2023-02-03T07:08:10;100378.00;;;7.70
29423;BMP180;16399;51.686;8.684;2023-02-03T07:11:13;100377.00;;;7.70
29423;BMP180;16399;51.686;8.684;2023-02-03T07:14:15;100377.00;;;7.60
29423;BMP180;16399;51.686;8.684;2023-02-03T07:17:17;100385.00;;;7.60
29423;BMP180;16399;51.686;8.684;2023-02-03T07:20:21;100381.00;;;7.60
29423;BMP180;16399;51.686;8.684;2023-02-03T07:23:23;100383.00;;;7.60
29423;BMP180;16399;51.686;8.684;2023-02-03T07:26:25;100384.00;;;7.60
29423;BMP180;16399;51.686;8.684;2023-02-03T07:29:28;100381.00;;;7.60
29423;BMP180;16399;51.686;8.684;2023-02-03T07:32:30;100385.00;;;7.50
29423;BMP180;16399;51.686;8.684;2023-02-03T07:35:32;100378.00;;;7.50
29423;BMP180;16399;51.686;8.684;2023-02-03T07:38:35;100371.00;;;7.50
29423;BMP180;16399;51.686;8.684;2023-02-03T07:41:39;100356.00;;;7.50
29423;BMP180;16399;51.686;8.684;2023-02-03T07:44:41;100356.00;;;7.50
29423;BMP180;16399;51.686;8.684;2023-02-03T07:47:44;100356.00;;;7.50
29423;BMP180;16399;51.686;8.684;2023-02-03T07:50:48;100359.00;;;7.50
29423;BMP180;16399;51.686;8.684;2023-02-03T07:53:51;100368.00;;;7.50
29423;BMP180;16399;51.686;8.684;2023-02-03T07:56:53;100344.00;;;7.50
29423;BMP180;16399;51.686;8.684;2023-02-03T07:59:55;100339.00;;;7.50
29423;BMP180;16399;51.686;8.684;2023-02-03T08:02:57;100354.00;;;7.50
29423;BMP180;16399;51.686;8.684;2023-02-03T08:06:00;100363.00;;;7.50
29423;BMP180;16399;51.686;8.684;2023-02-03T08:09:02;100354.00;;;7.50
29423;BMP180;16399;51.686;8.684;2023-02-03T08:12:05;100348.00;;;7.50
29423;BMP180;16399;51.686;8.684;2023-02-03T08:15:07;100345.00;;;7.50
29423;BMP180;16399;51.686;8.684;2023-02-03T08:18:10;100353.00;;;7.50
29423;BMP180;16399;51.686;8.684;2023-02-03T08:21:12;100360.00;;;7.50
29423;BMP180;16399;51.686;8.684;2023-02-03T08:24:15;100355.00;;;7.50
29423;BMP180;16399;51.686;8.684;2023-02-03T08:27:19;100364.00;;;7.50
29423;BMP180;16399;51.686;8.684;2023-02-03T08:30:21;100356.00;;;7.50
29423;BMP180;16399;51.686;8.684;2023-02-03T08:33:24;100356.00;;;7.50
29423;BMP180;16399;51.686;8.684;2023-02-03T08:36:26;100352.00;;;7.60
29423;BMP180;16399;51.686;8.684;2023-02-03T08:39:28;100357.00;;;7.60
29423;BMP180;16399;51.686;8.684;2023-02-03T08:42:31;100344.00;;;7.60
29423;BMP180;16399;51.686;8.684;2023-02-03T08:45:33;100336.00;;;7.60
29423;BMP180;16399;51.686;8.684;2023-02-03T08:48:35;100345.00;;;7.60
29423;BMP180;16399;51.686;8.684;2023-02-03T08:51:38;100342.00;;;7.60
29423;BMP180;16399;51.686;8.684;2023-02-03T08:54:40;100341.00;;;7.60
29423;BMP180;16399;51.686;8.684;2023-02-03T08:57:43;100344.00;;;7.60
29423;BMP180;16399;51.686;8.684;2023-02-03T09:00:46;100352.00;;;7.60
29423;BMP180;16399;51.686;8.684;2023-02-03T09:03:50;100351.00;;;7.60
29423;BMP180;16399;51.686;8.684;2023-02-03T09:06:52;100344.00;;;7.60
29423;BMP180;16399;51.686;8.684;2023-02-03T09:09:55;100339.00;;;7.60
29423;BMP180;16399;51.686;8.684;2023-02-03T09:12:57;100342.00;;;7.60
29423;BMP180;16399;51.686;8.684;2023-02-03T09:16:00;100335.00;;;7.60
29423;BMP180;16399;51.686;8.684;2023-02-03T09:19:02;100334.00;;;7.60
29423;BMP180;16399;51.686;8.684;2023-02-03T09:22:05;100324.00;;;7.60
29423;BMP180;16399;51.686;8.684;2023-02-03T09:25:07;100325.00;;;7.60
29423;BMP180;16399;51.686;8.684;2023-02-03T09:28:09;100323.00;;;7.60
29423;BMP180;16399;51.686;8.684;2023-02-03T09:31:14;100337.00;;;7.70
29423;BMP180;16399;51.686;8.684;2023-02-03T09:34:21;100348.00;;;7.70
29423;BMP180;16399;51.686;8.684;2023-02-03T09:37:23;100344.00;;;7.70
29423;BMP180;16399;51.686;8.684;2023-02-03T09:40:32;100333.00;;;7.70
29423;BMP180;16399;51.686;8.684;2023-02-03T09:43:55;100335.00;;;7.70
29423;BMP180;16399;51.686;8.684;2023-02-03T09:47:03;100338.00;;;7.70
29423;BMP180;16399;51.686;8.684;2023-02-03T09:50:11;100343.00;;;7.70
29423;BMP180;16399;51.686;8.684;2023-02-03T09:53:30;100347.00;;;7.70
29423;BMP180;16399;51.686;8.684;2023-02-03T09:56:33;100351.00;;;7.70
29423;BMP180;16399;51.686;8.684;2023-02-03T09:59:37;100350.00;;;7.80
29423;BMP180;16399;51.686;8.684;2023-02-03T10:03:08;100348.00;;;7.80
29423;BMP180;16399;51.686;8.684;2023-02-03T10:09:49;100358.00;;;7.80
29423;BMP180;16399;51.686;8.684;2023-02-03T10:16:14;100332.00;;;7.70
29423;BMP180;16399;51.686;8.684;2023-02-03T10:19:19;100325.00;;;7.80
29423;BMP180;16399;51.686;8.684;2023-02-03T10:22:25;100334.00;;;7.80
29423;BMP180;16399;51.686;8.684;2023-02-03T10:25:40;100317.00;;;7.80
29423;BMP180;16399;51.686;8.684;2023-02-03T10:28:50;100334.00;;;7.80
29423;BMP180;16399;51.686;8.684;2023-02-03T10:31:53;100335.00;;;7.80
29423;BMP180;16399;51.686;8.684;2023-02-03T10:34:57;100340.00;;;7.80
29423;BMP180;16399;51.686;8.684;2023-02-03T10:37:59;100333.00;;;7.90
29423;BMP180;16399;51.686;8.684;2023-02-03T10:41:03;100350.00;;;7.90
29423;BMP180;16399;51.686;8.684;2023-02-03T10:44:07;100352.00;;;8.00
29423;BMP180;16399;51.686;8.684;2023-02-03T10:47:26;100355.00;;;8.00
29423;BMP180;16399;51.686;8.684;2023-02-03T10:50:27;100354.00;;;8.00
29423;BMP180;16399;51.686;8.684;2023-02-03T10:53:32;100354.00;;;8.00
29423;BMP180;16399;51.686;8.684;2023-02-03T10:56:36;100349.00;;;8.00
29423;BMP180;16399;51.686;8.684;2023-02-03T10:59:44;100347.00;;;8.00
29423;BMP180;16399;51.686;8.684;2023-02-03T11:03:00;100358.00;;;8.00
29423;BMP180;16399;51.686;8.684;2023-02-03T11:06:12;100369.00;;;8.00
29423;BMP180;16399;51.686;8.684;2023-02-03T11:09:34;100349.00;;;8.00
29423;BMP180;16399;51.686;8.684;2023-02-03T11:12:36;100345.00;;;8.10
29423;BMP180;16399;51.686;8.684;2023-02-03T11:15:43;100364.00;;;8.10
29423;BMP180;16399;51.686;8.684;2023-02-03T11:21:52;100374.00;;;8.10
29423;BMP180;16399;51.686;8.684;2023-02-03T11:24:57;100372.00;;;8.10
29423;BMP180;16399;51.686;8.684;2023-02-03T11:28:02;100364.00;;;8.10
29423;BMP180;16399;51.686;8.684;2023-02-03T11:31:13;100369.00;;;8.10
29423;BMP180;16399;51.686;8.684;2023-02-03T11:34:16;100361.00;;;8.10
29423;BMP180;16399;51.686;8.684;2023-02-03T11:37:37;100365.00;;;8.20
29423;BMP180;16399;51.686;8.684;2023-02-03T11:40:40;100371.00;;;8.20
29423;BMP180;16399;51.686;8.684;2023-02-03T11:43:42;100371.00;;;8.10
29423;BMP180;16399;51.686;8.684;2023-02-03T11:46:47;100358.00;;;8.20
29423;BMP180;16399;51.686;8.684;2023-02-03T11:50:17;100361.00;;;8.20
29423;BMP180;16399;51.686;8.684;2023-02-03T11:53:26;100378.00;;;8.20
29423;BMP180;16399;51.686;8.684;2023-02-03T12:00:18;100351.00;;;8.20
29423;BMP180;16399;51.686;8.684;2023-02-03T12:03:54;100348.00;;;8.20
29423;BMP180;16399;51.686;8.684;2023-02-03T12:07:08;100358.00;;;8.20
29423;BMP180;16399;51.686;8.684;2023-02-03T12:10:27;100342.00;;;8.30
29423;BMP180;16399;51.686;8.684;2023-02-03T12:23:59;100382.00;;;8.30
29423;BMP180;16399;51.686;8.684;2023-02-03T12:27:17;100404.00;;;8.30
29423;BMP180;16399;51.686;8.684;2023-02-03T12:30:23;100399.00;;;8.30
29423;BMP180;16399;51.686;8.684;2023-02-03T12:33:38;100423.00;;;8.20
29423;BMP180;16399;51.686;8.684;2023-02-03T12:39:52;100435.00;;;8.20
29423;BMP180;16399;51.686;8.684;2023-02-03T12:42:59;100438.00;;;8.10
29423;BMP180;16399;51.686;8.684;2023-02-03T12:46:15;100440.00;;;8.10
29423;BMP180;16399;51.686;8.684;2023-02-03T12:49:45;100440.00;;;8.00
29423;BMP180;16399;51.686;8.684;2023-02-03T12:52:41;100438.00;;;8.00
29423;BMP180;16399;51.686;8.684;2023-02-03T12:55:46;100432.00;;;7.90
29423;BMP180;16399;51.686;8.684;2023-02-03T12:59:34;100425.00;;;7.90
29423;BMP180;16399;51.686;8.684;2023-02-03T13:02:08;100430.00;;;7.80
29423;BMP180;16399;51.686;8.684;2023-02-03T13:05:14;100421.00;;;7.80
29423;BMP180;16399;51.686;8.684;2023-02-03T13:11:53;100433.00;;;7.80
29423;BMP180;16399;51.686;8.684;2023-02-03T13:18:25;100454.00;;;7.80
29423;BMP180;16399;51.686;8.684;2023-02-03T13:21:29;100438.00;;;7.80
29423;BMP180;16399;51.686;8.684;2023-02-03T13:24:32;100425.00;;;7.90
29423;BMP180;16399;51.686;8.684;2023-02-03T13:27:49;100421.00;;;8.00
29423;BMP180;16399;51.686;8.684;2023-02-03T13:31:11;100410.00;;;8.00
29423;BMP180;16399;51.686;8.684;2023-02-03T13:37:44;100398.00;;;8.10
29423;BMP180;16399;51.686;8.684;2023-02-03T13:43:58;100423.00;;;8.10
29423;BMP180;16399;51.686;8.684;2023-02-03T13:47:01;100410.00;;;8.10
29423;BMP180;16399;51.686;8.684;2023-02-03T13:50:13;100417.00;;;8.10
29423;BMP180;16399;51.686;8.684;2023-02-03T13:56:23;100440.00;;;8.10
29423;BMP180;16399;51.686;8.684;2023-02-03T13:59:42;100446.00;;;8.10
29423;BMP180;16399;51.686;8.684;2023-02-03T14:02:54;100438.00;;;8.10
29423;BMP180;16399;51.686;8.684;2023-02-03T14:05:57;100462.00;;;8.10
29423;BMP180;16399;51.686;8.684;2023-02-03T14:09:50;100459.00;;;8.10
29423;BMP180;16399;51.686;8.684;2023-02-03T14:15:33;100466.00;;;8.00
29423;BMP180;16399;51.686;8.684;2023-02-03T14:18:44;100470.00;;;8.00
29423;BMP180;16399;51.686;8.684;2023-02-03T14:25:06;100482.00;;;8.00
29423;BMP180;16399;51.686;8.684;2023-02-03T14:28:14;100476.00;;;8.00
29423;BMP180;16399;51.686;8.684;2023-02-03T14:31:21;100487.00;;;8.00
29423;BMP180;16399;51.686;8.684;2023-02-03T14:34:36;100495.00;;;8.00
29423;BMP180;16399;51.686;8.684;2023-02-03T14:37:41;100493.00;;;8.00
29423;BMP180;16399;51.686;8.684;2023-02-03T14:40:55;100510.00;;;7.90
29423;BMP180;16399;51.686;8.684;2023-02-03T14:47:46;100515.00;;;7.90
29423;BMP180;16399;51.686;8.684;2023-02-03T14:51:03;100510.00;;;7.90
29423;BMP180;16399;51.686;8.684;2023-02-03T15:00:40;100519.00;;;7.80
29423;BMP180;16399;51.686;8.684;2023-02-03T15:04:02;100530.00;;;7.90
29423;BMP180;16399;51.686;8.684;2023-02-03T15:06:51;100521.00;;;7.80
29423;BMP180;16399;51.686;8.684;2023-02-03T15:09:55;100543.00;;;7.80
29423;BMP180;16399;51.686;8.684;2023-02-03T15:12:58;100539.00;;;7.80
29423;BMP180;16399;51.686;8.684;2023-02-03T15:16:02;100543.00;;;7.80
29423;BMP180;16399;51.686;8.684;2023-02-03T15:19:13;100562.00;;;7.70
29423;BMP180;16399;51.686;8.684;2023-02-03T15:22:27;100573.00;;;7.80
29423;BMP180;16399;51.686;8.684;2023-02-03T15:25:30;100569.00;;;7.70
29423;BMP180;16399;51.686;8.684;2023-02-03T15:28:33;100573.00;;;7.70
29423;BMP180;16399;51.686;8.684;2023-02-03T15:31:40;100568.00;;;7.70
29423;BMP180;16399;51.686;8.684;2023-02-03T15:34:48;100576.00;;;7.70
29423;BMP180;16399;51.686;8.684;2023-02-03T15:37:53;100574.00;;;7.70
29423;BMP180;16399;51.686;8.684;2023-02-03T15:40:56;100593.00;;;7.70
29423;BMP180;16399;51.686;8.684;2023-02-03T15:44:01;100580.00;;;7.60
29423;BMP180;16399;51.686;8.684;2023-02-03T15:47:14;100600.00;;;7.60
29423;BMP180;16399;51.686;8.684;2023-02-03T15:50:29;100583.00;;;7.60
29423;BMP180;16399;51.686;8.684;2023-02-03T15:53:44;100597.00;;;7.60
29423;BMP180;16399;51.686;8.684;2023-02-03T15:56:49;100593.00;;;7.50
29423;BMP180;16399;51.686;8.684;2023-02-03T16:00:09;100609.00;;;7.50
29423;BMP180;16399;51.686;8.684;2023-02-03T16:03:21;100608.00;;;7.40
29423;BMP180;16399;51.686;8.684;2023-02-03T16:06:30;100603.00;;;7.40
29423;BMP180;16399;51.686;8.684;2023-02-03T16:09:41;100610.00;;;7.40
29423;BMP180;16399;51.686;8.684;2023-02-03T16:12:43;100626.00;;;7.30
29423;BMP180;16399;51.686;8.684;2023-02-03T16:19:20;100628.00;;;7.30
29423;BMP180;16399;51.686;8.684;2023-02-03T16:22:27;100636.00;;;7.30
29423;BMP180;16399;51.686;8.684;2023-02-03T16:25:32;100634.00;;;7.20
29423;BMP180;16399;51.686;8.684;2023-02-03T16:28:35;100636.00;;;7.20
29423;BMP180;16399;51.686;8.684;2023-02-03T16:31:55;100636.00;;;7.20
29423;BMP180;16399;51.686;8.684;2023-02-03T16:35:16;100646.00;;;7.20
29423;BMP180;16399;51.686;8.684;2023-02-03T16:38:36;100647.00;;;7.20
29423;BMP180;16399;51.686;8.684;2023-02-03T16:42:00;100650.00;;;7.20
29423;BMP180;16399;51.686;8.684;2023-02-03T16:45:22;100658.00;;;7.20
29423;BMP180;16399;51.686;8.684;2023-02-03T16:48:42;100660.00;;;7.20
29423;BMP180;16399;51.686;8.684;2023-02-03T16:52:02;100654.00;;;7.20
29423;BMP180;16399;51.686;8.684;2023-02-03T16:55:07;100650.00;;;7.20
29423;BMP180;16399;51.686;8.684;2023-02-03T16:58:10;100650.00;;;7.20
29423;BMP180;16399;51.686;8.684;2023-02-03T17:01:12;100652.00;;;7.20
29423;BMP180;16399;51.686;8.684;2023-02-03T17:04:15;100663.00;;;7.20
29423;BMP180;16399;51.686;8.684;2023-02-03T17:07:18;100659.00;;;7.30
29423;BMP180;16399;51.686;8.684;2023-02-03T17:10:20;100664.00;;;7.30
29423;BMP180;16399;51.686;8.684;2023-02-03T17:13:23;100664.00;;;7.30
29423;BMP180;16399;51.686;8.684;2023-02-03T17:16:26;100664.00;;;7.30
29423;BMP180;16399;51.686;8.684;2023-02-03T17:19:28;100663.00;;;7.30
29423;BMP180;16399;51.686;8.684;2023-02-03T17:22:31;100683.00;;;7.20
29423;BMP180;16399;51.686;8.684;2023-02-03T17:25:34;100677.00;;;7.20
29423;BMP180;16399;51.686;8.684;2023-02-03T17:28:39;100676.00;;;7.20
29423;BMP180;16399;51.686;8.684;2023-02-03T17:31:43;100677.00;;;7.20
29423;BMP180;16399;51.686;8.684;2023-02-03T17:34:45;100678.00;;;7.20
29423;BMP180;16399;51.686;8.684;2023-02-03T17:37:47;100676.00;;;7.10
29423;BMP180;16399;51.686;8.684;2023-02-03T17:40:50;100675.00;;;7.10
29423;BMP180;16399;51.686;8.684;2023-02-03T17:43:52;100674.00;;;7.00
29423;BMP180;16399;51.686;8.684;2023-02-03T17:46:54;100690.00;;;7.00
29423;BMP180;16399;51.686;8.684;2023-02-03T17:49:57;100686.00;;;6.90
29423;BMP180;16399;51.686;8.684;2023-02-03T17:52:59;100690.00;;;6.90
29423;BMP180;16399;51.686;8.684;2023-02-03T17:56:10;100696.00;;;6.90
29423;BMP180;16399;51.686;8.684;2023-02-03T17:59:13;100695.00;;;6.90
29423;BMP180;16399;51.686;8.684;2023-02-03T18:02:15;100707.00;;;6.90
29423;BMP180;16399;51.686;8.684;2023-02-03T18:05:18;100706.00;;;6.80
29423;BMP180;16399;51.686;8.684;2023-02-03T18:08:20;100704.00;;;6.80
29423;BMP180;16399;51.686;8.684;2023-02-03T18:11:23;100705.00;;;6.80
29423;BMP180;16399;51.686;8.684;2023-02-03T18:14:25;100712.00;;;6.80
29423;BMP180;16399;51.686;8.684;2023-02-03T18:17:27;100714.00;;;6.70
29423;BMP180;16399;51.686;8.684;2023-02-03T18:20:30;100717.00;;;6.70
29423;BMP180;16399;51.686;8.684;2023-02-03T18:23:32;100718.00;;;6.70
29423;BMP180;16399;51.686;8.684;2023-02-03T18:26:35;100719.00;;;6.60
29423;BMP180;16399;51.686;8.684;2023-02-03T18:29:39;100727.00;;;6.50
29423;BMP180;16399;51.686;8.684;2023-02-03T18:32:42;100715.00;;;6.50
29423;BMP180;16399;51.686;8.684;2023-02-03T18:35:44;100728.00;;;6.50
29423;BMP180;16399;51.686;8.684;2023-02-03T18:38:47;100746.00;;;6.40
29423;BMP180;16399;51.686;8.684;2023-02-03T18:41:49;100747.00;;;6.40
29423;BMP180;16399;51.686;8.684;2023-02-03T18:44:52;100750.00;;;6.40
29423;BMP180;16399;51.686;8.684;2023-02-03T18:47:54;100761.00;;;6.40
29423;BMP180;16399;51.686;8.684;2023-02-03T18:50:56;100767.00;;;6.50
29423;BMP180;16399;51.686;8.684;2023-02-03T18:54:00;100765.00;;;6.50
29423;BMP180;16399;51.686;8.684;2023-02-03T18:57:03;100775.00;;;6.50
29423;BMP180;16399;51.686;8.684;2023-02-03T19:00:06;100787.00;;;6.50
29423;BMP180;16399;51.686;8.684;2023-02-03T19:03:09;100787.00;;;6.60
29423;BMP180;16399;51.686;8.684;2023-02-03T19:06:11;100794.00;;;6.50
29423;BMP180;16399;51.686;8.684;2023-02-03T19:09:14;100793.00;;;6.60
29423;BMP180;16399;51.686;8.684;2023-02-03T19:12:18;100794.00;;;6.60
29423;BMP180;16399;51.686;8.684;2023-02-03T19:15:20;100802.00;;;6.60